Time;durP1;ratioP1;P1;durP2;ratioP2;P2;SDS_P1;SDS_P2;PMS_P1;PMS_P2;Temp;Humidity;BMP_temperature;BMP_pressure;BME280_temperature;BME280_humidity;BME280_pressure;Samples;Min_cycle;Max_cycle;Signal;HPM_P1;HPM_P2
2023/01/18 00:00:29;;;;;;;0.40;0.40;;;;;;;-1.44;100.00;89970.63;2531572;23;20060;-81
2023/01/18 00:01:32;;;;;;;0.40;0.40;;;;;;;-1.55;100.00;89970.19;2531352;23;20416;-81
2023/01/18 00:02:33;;;;;;;0.40;0.40;;;;;;;-1.56;100.00;89976.56;2543179;23;20006;-81
2023/01/18 00:03:37;;;;;;;0.77;0.50;;;;;;;-1.50;100.00;89971.53;2519310;23;20510;-81
2023/01/18 00:04:37;;;;;;;0.30;0.30;;;;;;;-1.64;100.00;89976.03;2531796;23;20374;-81
2023/01/18 00:05:42;;;;;;;0.32;0.32;;;;;;;-1.33;100.00;89965.06;2531851;23;20078;-81
2023/01/18 00:06:43;;;;;;;0.30;0.30;;;;;;;-1.33;100.00;89971.03;2531859;23;20426;-81
2023/01/18 00:07:44;;;;;;;0.40;0.40;;;;;;;-1.47;100.00;89971.44;2519565;23;20010;-81
2023/01/18 00:08:45;;;;;;;0.30;0.30;;;;;;;-1.53;100.00;89970.50;2531098;23;20027;-81
2023/01/18 00:09:46;;;;;;;0.38;0.38;;;;;;;-1.52;100.00;89964.84;2518833;23;20022;-81
2023/01/18 00:10:46;;;;;;;0.40;0.40;;;;;;;-1.53;100.00;89963.38;2531301;23;20010;-81
2023/01/18 00:11:47;;;;;;;0.30;0.30;;;;;;;-1.63;100.00;89969.63;2555935;23;20000;-81
2023/01/18 00:12:48;;;;;;;0.40;0.40;;;;;;;-1.68;100.00;89967.53;2543197;23;20361;-81
2023/01/18 00:13:49;;;;;;;0.40;0.40;;;;;;;-1.61;100.00;89966.63;2531492;23;20064;-81
2023/01/18 00:14:50;;;;;;;0.20;0.20;;;;;;;-1.50;100.00;89969.66;2531013;23;20057;-81
2023/01/18 00:15:52;;;;;;;0.30;0.30;;;;;;;-1.39;100.00;89972.72;2519316;23;20009;-81
2023/01/18 00:16:53;;;;;;;0.30;0.30;;;;;;;-1.50;100.00;89968.91;2519698;23;20445;-82
2023/01/18 00:17:54;;;;;;;0.30;0.30;;;;;;;-1.53;100.00;89973.84;2531535;23;20001;-81
2023/01/18 00:18:57;;;;;;;0.30;0.30;;;;;;;-1.54;100.00;89974.25;2530842;23;20013;-81
2023/01/18 00:19:58;;;;;;;0.40;0.40;;;;;;;-1.57;100.00;89982.97;2531824;23;20006;-81
2023/01/18 00:21:01;;;;;;;0.20;0.20;;;;;;;-1.63;100.00;89980.09;2530481;23;20013;-81
2023/01/18 00:22:01;;;;;;;0.82;0.30;;;;;;;-1.67;100.00;89978.75;2531790;23;20013;-81
2023/01/18 00:23:02;;;;;;;0.20;0.20;;;;;;;-1.30;100.00;89974.72;2543500;23;20013;-81
2023/01/18 00:24:05;;;;;;;0.22;0.22;;;;;;;-1.40;100.00;89970.53;2543075;23;20346;-81
2023/01/18 00:25:09;;;;;;;0.57;0.30;;;;;;;-1.50;100.00;89976.78;2530822;23;20017;-81
2023/01/18 00:26:11;;;;;;;0.30;0.30;;;;;;;-1.58;100.00;89979.63;2531360;23;20040;-81
2023/01/18 00:27:12;;;;;;;1.95;0.30;;;;;;;-1.47;100.00;89973.34;2531571;23;20117;-80
2023/01/18 00:28:13;;;;;;;0.30;0.30;;;;;;;-1.60;100.00;89973.31;2530986;23;20017;-81
2023/01/18 00:29:15;;;;;;;0.30;0.30;;;;;;;-1.68;100.00;89967.53;2518929;23;20041;-81
2023/01/18 00:30:17;;;;;;;0.30;0.30;;;;;;;-1.70;100.00;89979.59;2530957;23;20500;-81
2023/01/18 00:31:20;;;;;;;0.43;0.40;;;;;;;-1.73;100.00;89981.16;2543438;23;20005;-81
2023/01/18 00:32:20;;;;;;;0.45;0.40;;;;;;;-1.77;100.00;89972.66;2531664;23;20010;-81
2023/01/18 00:33:22;;;;;;;0.25;0.25;;;;;;;-1.77;100.00;89975.28;2519238;23;20770;-81
2023/01/18 00:34:23;;;;;;;0.30;0.30;;;;;;;-1.59;100.00;89972.16;2519475;23;20010;-81
2023/01/18 00:35:24;;;;;;;0.30;0.30;;;;;;;-1.68;100.00;89972.78;2530776;23;20013;-81
2023/01/18 00:36:26;;;;;;;0.30;0.30;;;;;;;-1.70;100.00;89962.00;2530821;23;20116;-81
2023/01/18 00:37:27;;;;;;;0.30;0.30;;;;;;;-1.71;100.00;89971.00;2531430;23;20027;-81
2023/01/18 00:38:28;;;;;;;0.30;0.30;;;;;;;-1.78;100.00;89969.31;2531490;23;20006;-81
2023/01/18 00:39:29;;;;;;;0.28;0.28;;;;;;;-1.78;100.00;89971.91;2531442;23;20242;-81
2023/01/18 00:40:30;;;;;;;0.30;0.30;;;;;;;-1.60;100.00;89974.03;2531227;23;20001;-81
2023/01/18 00:41:31;;;;;;;0.40;0.40;;;;;;;-1.64;100.00;89970.78;2530456;23;20013;-81
2023/01/18 00:43:52;;;;;;;0.30;0.30;;;;;;;-1.68;100.00;89970.16;2538738;23;20006;-81
2023/01/18 00:44:53;;;;;;;0.38;0.30;;;;;;;-1.68;100.00;89969.41;2531005;23;20357;-81
2023/01/18 00:45:54;;;;;;;0.20;0.20;;;;;;;-1.68;100.00;89974.66;2543283;23;20006;-81
2023/01/18 00:46:55;;;;;;;0.30;0.30;;;;;;;-1.65;100.00;89973.84;2543307;23;20045;-81
2023/01/18 00:47:57;;;;;;;0.30;0.30;;;;;;;-1.57;100.00;89975.13;2518780;23;20017;-81
2023/01/18 00:48:58;;;;;;;0.57;0.40;;;;;;;-1.63;100.00;89974.88;2530876;23;19998;-81
2023/01/18 00:49:59;;;;;;;0.40;0.40;;;;;;;-1.40;100.00;89973.16;2519194;23;20006;-80
2023/01/18 00:51:01;;;;;;;0.30;0.30;;;;;;;-1.43;100.00;89974.69;2518929;23;20017;-80
2023/01/18 00:52:02;;;;;;;0.40;0.40;;;;;;;-1.54;100.00;89974.25;2531720;23;20041;-80
2023/01/18 00:53:03;;;;;;;0.20;0.20;;;;;;;-1.42;100.00;89975.44;2531192;23;20204;-80
2023/01/18 00:54:04;;;;;;;0.20;0.20;;;;;;;-1.54;100.00;89969.78;2530594;23;20053;-81
2023/01/18 00:55:05;;;;;;;0.52;0.40;;;;;;;-1.62;100.00;89976.38;2542898;23;20503;-81
2023/01/18 00:56:08;;;;;;;0.38;0.38;;;;;;;-1.52;100.00;89974.59;2543586;23;20508;-81
2023/01/18 00:57:09;;;;;;;0.30;0.30;;;;;;;-1.59;100.00;89980.75;2531841;23;20053;-81
2023/01/18 00:58:10;;;;;;;0.30;0.30;;;;;;;-1.65;100.00;89979.06;2530476;23;20365;-81
2023/01/18 00:59:11;;;;;;;0.30;0.30;;;;;;;-1.56;100.00;89977.31;2530665;23;20002;-80
2023/01/18 01:00:14;;;;;;;0.63;0.40;;;;;;;-1.40;100.00;89984.34;2542333;23;20084;-81
2023/01/18 01:01:15;;;;;;;0.60;0.32;;;;;;;-1.41;100.00;89976.91;2554961;23;20005;-81
2023/01/18 01:02:16;;;;;;;0.75;0.38;;;;;;;-1.40;100.00;89981.00;2531136;23;20323;-81
2023/01/18 01:03:18;;;;;;;0.20;0.20;;;;;;;-1.50;100.00;89980.13;2530996;23;20012;-80
2023/01/18 01:06:58;;;;;;;0.30;0.30;;;;;;;-1.59;100.00;89993.84;2554936;23;20452;-81
2023/01/18 01:07:59;;;;;;;0.30;0.30;;;;;;;-1.55;100.00;89986.63;2542861;23;20112;-81
2023/01/18 01:09:00;;;;;;;0.30;0.30;;;;;;;-1.59;100.00;89988.59;2519105;23;20006;-81
2023/01/18 01:10:07;;;;;;;0.30;0.30;;;;;;;-1.67;100.00;89986.59;2531065;23;20009;-81
2023/01/18 01:11:11;;;;;;;0.22;0.22;;;;;;;-1.67;100.00;89989.94;2555666;23;20080;-81
2023/01/18 01:26:49;;;;;;;0.20;0.20;;;;;;;-1.60;100.00;89994.25;2556205;23;20004;-81
2023/01/18 01:27:50;;;;;;;0.50;0.25;;;;;;;-1.62;100.00;89989.44;2543288;23;20029;-81
2023/01/18 01:28:52;;;;;;;0.22;0.22;;;;;;;-1.54;100.00;90001.19;2530543;23;20107;-81
2023/01/18 01:29:53;;;;;;;0.20;0.20;;;;;;;-1.58;100.00;89994.56;2531121;23;20024;-81
2023/01/18 01:30:59;;;;;;;0.28;0.28;;;;;;;-1.63;100.00;89998.44;2530826;23;20454;-81
2023/01/18 01:32:00;;;;;;;0.20;0.20;;;;;;;-1.43;100.00;89987.78;2520469;23;20093;-81
2023/01/18 01:33:01;;;;;;;0.22;0.22;;;;;;;-1.47;100.00;89996.91;2518716;23;20088;-81
2023/01/18 01:34:02;;;;;;;0.22;0.22;;;;;;;-1.53;100.00;90004.56;2530934;23;20469;-81
2023/01/18 01:35:03;;;;;;;0.45;0.32;;;;;;;-1.49;100.00;89999.94;2531113;23;20095;-81
2023/01/18 01:36:07;;;;;;;0.30;0.30;;;;;;;-1.40;100.00;90000.06;2542993;23;20006;-81
2023/01/18 01:37:08;;;;;;;0.20;0.20;;;;;;;-1.49;100.00;89999.19;2520321;23;20529;-82
2023/01/18 01:38:09;;;;;;;0.20;0.20;;;;;;;-1.55;100.00;89999.72;2518715;23;20002;-81
2023/01/18 01:39:10;;;;;;;0.20;0.20;;;;;;;-1.60;100.00;90007.34;2518274;23;20009;-81
2023/01/18 01:40:11;;;;;;;0.20;0.20;;;;;;;-1.50;100.00;89998.47;2542688;23;20005;-81
2023/01/18 01:41:27;;;;;;;0.20;0.20;;;;;;;-1.49;100.00;90009.66;2543175;23;20417;-80
2023/01/18 01:42:28;;;;;;;0.22;0.22;;;;;;;-1.50;100.00;90003.69;2533941;23;20021;-81
2023/01/18 01:43:42;;;;;;;0.20;0.20;;;;;;;-1.56;100.00;90008.72;2519124;23;20010;-81
2023/01/18 01:44:50;;;;;;;0.20;0.20;;;;;;;-1.64;100.00;90012.69;2523448;23;20010;-81
2023/01/18 01:45:51;;;;;;;0.20;0.20;;;;;;;-1.57;100.00;90007.25;2533448;23;20016;-81
2023/01/18 01:47:20;;;;;;;0.20;0.20;;;;;;;-1.50;100.00;90008.94;2542902;23;20432;-80
2023/01/18 01:48:21;;;;;;;0.20;0.20;;;;;;;-1.54;100.00;90006.44;2536571;23;20012;-81
2023/01/18 01:49:27;;;;;;;0.20;0.20;;;;;;;-1.50;100.00;90005.59;2543031;23;20009;-81
2023/01/18 01:50:38;;;;;;;0.20;0.20;;;;;;;-1.56;100.00;90008.72;2555626;23;20047;-81
2023/01/18 01:51:42;;;;;;;0.20;0.20;;;;;;;-1.63;100.00;90008.19;2544750;23;20002;-81
2023/01/18 01:52:46;;;;;;;0.20;0.20;;;;;;;-1.61;100.00;90011.13;2543566;23;20002;-80
2023/01/18 01:53:49;;;;;;;0.35;0.20;;;;;;;-1.66;100.00;90012.38;2542409;23;20523;-81
2023/01/18 01:54:58;;;;;;;0.20;0.20;;;;;;;-1.54;100.00;90014.28;2543726;23;20326;-80
2023/01/18 01:56:00;;;;;;;0.20;0.20;;;;;;;-1.62;100.00;90013.03;2555184;23;20031;-81
2023/01/18 01:57:25;;;;;;;0.28;0.28;;;;;;;-1.70;100.00;90019.59;2531181;23;20108;-80
2023/01/18 01:58:27;;;;;;;0.20;0.20;;;;;;;-1.53;100.00;90023.63;2547097;23;20009;-81
2023/01/18 01:59:28;;;;;;;0.20;0.20;;;;;;;-1.28;100.00;90016.94;2530743;23;20401;-81
2023/01/18 02:00:30;;;;;;;0.63;0.20;;;;;;;-1.37;100.00;90019.44;2542913;23;20033;-81
2023/01/18 02:01:32;;;;;;;0.17;0.17;;;;;;;-1.28;100.00;90020.28;2530844;23;20437;-80
2023/01/18 02:02:34;;;;;;;0.20;0.20;;;;;;;-1.43;100.00;90013.25;2531337;23;20006;-80
2023/01/18 02:03:38;;;;;;;0.20;0.20;;;;;;;-1.32;100.00;90019.69;2543386;23;20396;-81
2023/01/18 02:04:43;;;;;;;0.43;0.20;;;;;;;-1.45;100.00;90024.13;2554886;23;20088;-81
2023/01/18 02:05:49;;;;;;;0.20;0.20;;;;;;;-1.45;100.00;90021.50;2554813;23;20335;-81
2023/01/18 02:06:50;;;;;;;0.20;0.20;;;;;;;-1.51;100.00;90023.19;2544167;23;20005;-81
2023/01/18 02:07:53;;;;;;;0.50;0.20;;;;;;;-1.59;100.00;90020.03;2542983;23;20499;-80
2023/01/18 02:08:54;;;;;;;0.10;0.10;;;;;;;-1.64;100.00;90025.03;2543237;23;20433;-80
2023/01/18 02:09:57;;;;;;;0.20;0.20;;;;;;;-1.66;100.00;90022.13;2531009;23;20006;-81
2023/01/18 02:10:58;;;;;;;0.10;0.10;;;;;;;-1.76;100.00;90026.47;2542596;23;20016;-81
2023/01/18 02:11:59;;;;;;;0.25;0.25;;;;;;;-1.71;100.00;90020.75;2530305;23;20014;-80
2023/01/18 02:13:00;;;;;;;0.63;0.20;;;;;;;-1.66;100.00;90024.75;2518915;23;20006;-80
2023/01/18 02:14:09;;;;;;;1.17;0.20;;;;;;;-1.70;100.00;90026.72;2530856;23;20564;-80
2023/01/18 02:15:10;;;;;;;0.20;0.20;;;;;;;-1.53;100.00;90026.22;2534231;23;20429;-81
2023/01/18 02:16:36;;;;;;;0.20;0.20;;;;;;;-1.63;100.00;90026.50;2530207;23;20453;-81
2023/01/18 02:17:49;;;;;;;0.10;0.10;;;;;;;-1.71;100.00;90020.75;2528048;23;20084;-81
2023/01/18 02:19:08;;;;;;;0.17;0.17;;;;;;;-1.78;100.00;90028.78;2523138;23;20097;-82
2023/01/18 02:20:37;;;;;;;0.80;0.25;;;;;;;-1.75;100.00;90027.22;2538161;23;20037;-81
2023/01/18 02:22:01;;;;;;;0.20;0.20;;;;;;;-1.68;100.00;90029.66;2536512;23;20009;-81
2023/01/18 02:23:06;;;;;;;0.20;0.20;;;;;;;-1.60;100.00;90023.06;2527085;23;20002;-81
2023/01/18 02:24:52;;;;;;;0.50;0.20;;;;;;;-1.62;100.00;90031.34;2519800;23;20024;-81
2023/01/18 02:26:23;;;;;;;0.20;0.20;;;;;;;-1.40;100.00;90033.38;2537160;23;20083;-81
2023/01/18 02:27:30;;;;;;;0.20;0.20;;;;;;;-1.50;100.00;90037.75;2530689;23;20087;-81
2023/01/18 02:28:35;;;;;;;0.63;0.60;;;;;;;-1.61;100.00;90035.44;2533251;23;20010;-81
2023/01/18 02:29:39;;;;;;;0.13;0.13;;;;;;;-1.68;100.00;90033.00;2531079;23;20442;-81
2023/01/18 02:30:48;;;;;;;0.15;0.15;;;;;;;-1.72;100.00;90034.97;2531144;23;20014;-81
2023/01/18 02:32:07;;;;;;;0.20;0.20;;;;;;;-1.73;100.00;90040.63;2521432;23;20002;-81
2023/01/18 02:33:17;;;;;;;0.20;0.20;;;;;;;-1.75;100.00;90037.69;2538374;23;20010;-80
2023/01/18 02:34:25;;;;;;;0.20;0.20;;;;;;;-1.64;100.00;90044.09;2532679;23;20445;-81
2023/01/18 02:35:42;;;;;;;0.20;0.20;;;;;;;-1.75;100.00;90046.28;2521695;23;20011;-80
2023/01/18 02:37:06;;;;;;;0.13;0.13;;;;;;;-1.73;100.00;90035.38;2537230;23;20010;-81
2023/01/18 02:38:15;;;;;;;0.20;0.20;;;;;;;-1.79;100.00;90040.41;2546399;23;20012;-80
2023/01/18 02:39:30;;;;;;;0.30;0.30;;;;;;;-1.65;100.00;90041.91;2532249;23;20014;-81
2023/01/18 02:40:40;;;;;;;0.20;0.20;;;;;;;-1.73;100.00;90048.47;2536624;23;20006;-81
2023/01/18 02:47:22;;;;;;;0.20;0.20;;;;;;;-1.81;100.00;90059.13;2555727;23;20068;-81
2023/01/18 02:48:24;;;;;;;0.10;0.10;;;;;;;-1.87;100.00;90057.44;2554699;23;20008;-81
2023/01/18 02:49:30;;;;;;;0.32;0.20;;;;;;;-2.01;100.00;90057.81;2542491;23;20032;-81
2023/01/18 02:50:32;;;;;;;0.20;0.20;;;;;;;-2.05;100.00;90056.00;2531467;23;20441;-80
2023/01/18 02:51:33;;;;;;;1.00;0.20;;;;;;;-2.08;100.00;90056.09;2543122;23;20036;-81
2023/01/18 02:52:46;;;;;;;0.20;0.20;;;;;;;-2.00;100.00;90059.28;2543110;23;20009;-80
2023/01/18 02:53:47;;;;;;;0.10;0.10;;;;;;;-2.00;100.00;90059.28;2532836;23;20010;-80
2023/01/18 02:54:48;;;;;;;0.10;0.10;;;;;;;-2.05;100.00;90060.50;2530514;23;20002;-80
2023/01/18 02:55:54;;;;;;;0.10;0.10;;;;;;;-2.07;100.00;90052.31;2554954;23;20005;-81
2023/01/18 02:56:58;;;;;;;0.10;0.10;;;;;;;-2.04;100.00;90059.34;2542794;23;20005;-80
2023/01/18 02:58:17;;;;;;;0.20;0.20;;;;;;;-2.11;100.00;90060.28;2519764;23;20132;-81
2023/01/18 02:59:35;;;;;;;0.10;0.10;;;;;;;-2.04;100.00;90051.50;2525914;23;20006;-81
2023/01/18 03:00:43;;;;;;;0.20;0.20;;;;;;;-2.11;100.00;90057.66;2534213;23;20591;-81
2023/01/18 03:01:50;;;;;;;0.10;0.10;;;;;;;-2.10;100.00;90058.41;2532371;23;20093;-80
2023/01/18 03:02:53;;;;;;;0.20;0.20;;;;;;;-2.12;100.00;90052.81;2554977;23;20701;-81
2023/01/18 03:03:59;;;;;;;0.10;0.10;;;;;;;-2.17;100.00;90064.53;2542836;23;20039;-81
2023/01/18 03:05:02;;;;;;;0.20;0.20;;;;;;;-2.15;100.00;90062.25;2532790;23;20385;-81
2023/01/18 03:06:06;;;;;;;0.10;0.10;;;;;;;-2.12;100.00;90056.16;2531160;23;20104;-80
2023/01/18 03:07:12;;;;;;;0.20;0.20;;;;;;;-2.05;100.00;90071.72;2520059;23;20065;-81
2023/01/18 03:08:31;;;;;;;0.10;0.10;;;;;;;-2.20;100.00;90064.59;2531971;23;20010;-81
2023/01/18 03:09:33;;;;;;;0.10;0.10;;;;;;;-2.16;100.00;90067.88;2525407;23;20007;-81
2023/01/18 03:10:43;;;;;;;0.20;0.20;;;;;;;-2.18;100.00;90073.53;2530661;23;20014;-81
2023/01/18 03:12:09;;;;;;;0.20;0.20;;;;;;;-2.19;100.00;90068.72;2532686;23;20012;-81
2023/01/18 03:13:19;;;;;;;0.20;0.20;;;;;;;-2.23;100.00;90076.66;2528299;23;20012;-80
2023/01/18 03:15:00;;;;;;;0.20;0.20;;;;;;;-2.24;100.00;90072.53;2533101;23;20180;-81
2023/01/18 03:16:22;;;;;;;0.20;0.20;;;;;;;-2.28;100.00;90070.03;2542498;23;20346;-81
2023/01/18 03:17:32;;;;;;;0.10;0.10;;;;;;;-2.23;100.00;90073.28;2534965;23;20369;-81
2023/01/18 03:18:58;;;;;;;0.17;0.17;;;;;;;-2.23;100.00;90075.91;2522603;23;20007;-81
2023/01/18 03:21:07;;;;;;;0.20;0.20;;;;;;;-2.20;100.00;90075.81;2554399;23;20001;-81
2023/01/18 03:22:09;;;;;;;0.20;0.20;;;;;;;-1.98;100.00;90075.28;2531689;23;20013;-81
2023/01/18 03:24:40;;;;;;;0.10;0.10;;;;;;;-2.08;100.00;90087.50;2542039;23;20057;-82
2023/01/18 03:25:44;;;;;;;0.52;0.10;;;;;;;-2.06;100.00;90079.97;2544054;23;20006;-81
2023/01/18 03:26:52;;;;;;;0.10;0.10;;;;;;;-2.09;100.00;90078.91;2532049;23;20005;-81
2023/01/18 03:33:42;;;;;;;0.60;0.20;;;;;;;-2.03;100.00;90092.22;2549773;23;20022;-81
2023/01/18 03:34:58;;;;;;;0.20;0.20;;;;;;;-1.87;100.00;90096.69;2533909;23;20032;-81
2023/01/18 03:36:01;;;;;;;0.20;0.20;;;;;;;-1.93;100.00;90088.63;2525340;23;20407;-81
2023/01/18 03:37:08;;;;;;;0.20;0.20;;;;;;;-1.70;100.00;90100.03;2532195;23;20088;-81
2023/01/18 03:38:10;;;;;;;0.20;0.20;;;;;;;-1.71;100.00;90096.69;2532095;23;20002;-81
2023/01/18 03:39:18;;;;;;;0.20;0.20;;;;;;;-1.76;100.00;90097.16;2531268;23;20057;-81
2023/01/18 03:40:27;;;;;;;0.20;0.20;;;;;;;-1.79;100.00;90101.34;2532815;23;20010;-82
2023/01/18 03:41:34;;;;;;;0.10;0.10;;;;;;;-1.63;100.00;90094.59;2546817;23;20005;-81
2023/01/18 03:42:47;;;;;;;0.20;0.20;;;;;;;-1.69;100.00;90096.25;2543805;23;20041;-81
2023/01/18 03:43:51;;;;;;;0.25;0.25;;;;;;;-1.77;100.00;90098.31;2533523;23;20305;-81
2023/01/18 03:45:04;;;;;;;2.55;0.40;;;;;;;-1.66;100.00;90105.91;2519959;23;20430;-81
2023/01/18 03:46:06;;;;;;;0.20;0.20;;;;;;;-1.51;100.00;90109.63;2533653;23;20485;-81
2023/01/18 03:47:08;;;;;;;0.20;0.20;;;;;;;-1.35;100.00;90104.34;2520107;23;20011;-81
2023/01/18 03:48:09;;;;;;;0.20;0.20;;;;;;;-1.45;100.00;90107.22;2531312;23;20006;-81
2023/01/18 03:49:11;;;;;;;0.20;0.20;;;;;;;-1.41;100.00;90111.22;2555333;23;20356;-81
2023/01/18 03:50:13;;;;;;;0.10;0.10;;;;;;;-1.58;100.00;90109.78;2543389;23;20159;-81
2023/01/18 03:52:00;;;;;;;0.20;0.20;;;;;;;-1.65;100.00;90110.00;2542696;23;20005;-81
2023/01/18 03:53:07;;;;;;;0.20;0.20;;;;;;;-1.60;100.00;90112.84;2556334;23;20438;-81
2023/01/18 03:54:18;;;;;;;0.20;0.20;;;;;;;-1.54;100.00;90110.44;2555749;23;20009;-81
2023/01/18 03:55:37;;;;;;;0.20;0.20;;;;;;;-1.81;100.00;90116.72;2533084;23;20449;-81
2023/01/18 03:56:51;;;;;;;0.20;0.20;;;;;;;-1.87;100.00;90115.03;2538956;23;20016;-81
2023/01/18 03:57:56;;;;;;;0.20;0.20;;;;;;;-1.88;100.00;90108.31;2532966;23;20413;-81
2023/01/18 03:59:01;;;;;;;0.20;0.20;;;;;;;-1.98;100.00;90111.91;2519946;23;20097;-81
2023/01/18 04:00:04;;;;;;;0.20;0.20;;;;;;;-1.97;100.00;90116.75;2532583;23;20009;-81
2023/01/18 04:01:05;;;;;;;0.30;0.30;;;;;;;-1.99;100.00;90123.53;2544209;23;20119;-81
2023/01/18 04:02:08;;;;;;;0.20;0.20;;;;;;;-1.98;100.00;90117.16;2543188;23;20161;-81
2023/01/18 04:03:09;;;;;;;0.43;0.30;;;;;;;-1.99;100.00;90120.94;2530822;23;20009;-81
2023/01/18 04:04:10;;;;;;;0.20;0.20;;;;;;;-2.03;100.00;90121.72;2531287;23;20014;-82
2023/01/18 04:05:11;;;;;;;0.22;0.22;;;;;;;-2.06;100.00;90127.06;2519445;23;20037;-81
2023/01/18 04:06:12;;;;;;;0.50;0.50;;;;;;;-2.07;100.00;90128.19;2543711;23;20009;-81
2023/01/18 04:07:13;;;;;;;0.32;0.30;;;;;;;-1.95;100.00;90126.81;2543538;23;20452;-81
2023/01/18 04:08:15;;;;;;;0.22;0.22;;;;;;;-1.98;100.00;90133.59;2519073;23;20041;-81
2023/01/18 04:09:16;;;;;;;0.28;0.28;;;;;;;-1.67;100.00;90127.97;2519248;23;20101;-81
2023/01/18 04:10:17;;;;;;;0.20;0.20;;;;;;;-1.78;100.00;90129.00;2530753;23;20014;-81
2023/01/18 04:11:18;;;;;;;0.30;0.30;;;;;;;-1.80;100.00;90130.53;2531219;23;20353;-81
2023/01/18 04:12:19;;;;;;;0.20;0.20;;;;;;;-1.86;100.00;90129.56;2543694;23;20039;-81
2023/01/18 04:13:20;;;;;;;0.20;0.20;;;;;;;-1.89;100.00;90130.38;2543460;23;20016;-82
2023/01/18 04:14:21;;;;;;;0.43;0.20;;;;;;;-1.98;100.00;90144.06;2518605;23;20502;-81
2023/01/18 04:15:26;;;;;;;0.20;0.20;;;;;;;-1.72;100.00;90128.50;2518790;23;20002;-81
2023/01/18 04:16:27;;;;;;;0.20;0.20;;;;;;;-1.56;100.00;90137.03;2531913;23;20045;-81
2023/01/18 04:17:28;;;;;;;0.15;0.15;;;;;;;-1.63;100.00;90131.25;2518946;23;20033;-81
2023/01/18 04:18:29;;;;;;;0.20;0.20;;;;;;;-1.55;100.00;90135.88;2519006;23;20037;-81
2023/01/18 04:19:30;;;;;;;0.20;0.20;;;;;;;-1.71;100.00;90130.72;2531224;23;20105;-81
2023/01/18 04:20:31;;;;;;;0.20;0.20;;;;;;;-1.72;100.00;90129.22;2542855;23;20012;-81
2023/01/18 04:21:32;;;;;;;0.20;0.20;;;;;;;-1.64;100.00;90135.75;2530949;23;20013;-81
2023/01/18 04:22:33;;;;;;;0.20;0.20;;;;;;;-1.81;100.00;90142.91;2518336;23;20021;-82
2023/01/18 04:23:34;;;;;;;0.30;0.30;;;;;;;-1.93;100.00;90146.19;2519077;23;20010;-81
2023/01/18 04:24:35;;;;;;;1.00;0.20;;;;;;;-1.91;100.00;90148.41;2531267;23;20014;-81
2023/01/18 04:25:39;;;;;;;0.20;0.20;;;;;;;-1.87;100.00;90143.81;2543243;23;20016;-81
2023/01/18 04:26:40;;;;;;;0.20;0.20;;;;;;;-1.91;100.00;90149.13;2555176;23;20040;-81
2023/01/18 04:27:41;;;;;;;0.20;0.20;;;;;;;-2.03;100.00;90152.41;2543046;23;20005;-81
2023/01/18 04:28:42;;;;;;;0.20;0.20;;;;;;;-1.99;100.00;90158.28;2518642;23;20358;-81
2023/01/18 04:29:43;;;;;;;0.20;0.20;;;;;;;-2.03;100.00;90155.03;2519494;23;20338;-81
2023/01/18 04:30:44;;;;;;;0.20;0.20;;;;;;;-1.89;100.00;90159.19;2519301;23;20010;-81
2023/01/18 04:31:46;;;;;;;0.20;0.20;;;;;;;-1.99;100.00;90160.19;2530758;23;20017;-81
2023/01/18 04:32:46;;;;;;;0.10;0.10;;;;;;;-2.12;100.00;90163.44;2531136;23;20343;-81
2023/01/18 04:33:50;;;;;;;0.17;0.17;;;;;;;-2.20;100.00;90161.41;2531011;23;20018;-81
2023/01/18 04:34:52;;;;;;;0.20;0.20;;;;;;;-2.24;100.00;90158.13;2543927;23;20013;-81
2023/01/18 04:35:53;;;;;;;0.20;0.20;;;;;;;-2.28;100.00;90166.06;2531195;23;20020;-81
2023/01/18 04:36:54;;;;;;;0.20;0.20;;;;;;;-2.33;100.00;90169.16;2530831;23;20032;-81
2023/01/18 04:37:55;;;;;;;0.30;0.30;;;;;;;-2.34;100.00;90165.81;2530728;23;20006;-81
2023/01/18 04:38:57;;;;;;;0.20;0.20;;;;;;;-2.35;100.00;90174.81;2543453;23;20014;-80
2023/01/18 04:39:57;;;;;;;0.20;0.20;;;;;;;-2.15;100.00;90172.13;2555775;23;20005;-81
2023/01/18 04:41:05;;;;;;;0.20;0.20;;;;;;;-2.24;100.00;90174.56;2555751;23;20004;-81
2023/01/18 04:42:06;;;;;;;0.20;0.20;;;;;;;-2.34;100.00;90170.31;2555512;23;20451;-81
2023/01/18 04:43:07;;;;;;;0.30;0.30;;;;;;;-2.26;100.00;90182.09;2531131;23;20009;-81
2023/01/18 04:44:08;;;;;;;0.38;0.28;;;;;;;-2.00;100.00;90180.38;2518503;23;20462;-81
2023/01/18 04:45:12;;;;;;;0.30;0.30;;;;;;;-2.02;100.00;90177.41;2518803;23;20006;-81
2023/01/18 04:46:14;;;;;;;0.20;0.20;;;;;;;-2.12;100.00;90179.16;2520481;23;20096;-81
2023/01/18 04:47:15;;;;;;;0.20;0.20;;;;;;;-2.22;100.00;90176.78;2531561;23;20036;-81
2023/01/18 04:48:16;;;;;;;0.20;0.20;;;;;;;-2.31;100.00;90172.84;2531212;23;20500;-82
2023/01/18 04:49:17;;;;;;;0.20;0.20;;;;;;;-2.26;100.00;90182.09;2530864;23;20037;-80
2023/01/18 04:50:18;;;;;;;0.28;0.28;;;;;;;-2.20;100.00;90179.72;2518488;23;20094;-81
2023/01/18 04:51:19;;;;;;;0.30;0.30;;;;;;;-2.22;100.00;90185.38;2530680;23;20010;-81
2023/01/18 04:52:20;;;;;;;0.30;0.30;;;;;;;-2.29;100.00;90186.25;2555638;23;20588;-81
2023/01/18 04:53:21;;;;;;;0.20;0.20;;;;;;;-2.23;100.00;90191.75;2556389;23;20011;-82
2023/01/18 04:54:22;;;;;;;0.30;0.30;;;;;;;-2.24;100.00;90189.50;2555476;23;20369;-81
2023/01/18 04:55:23;;;;;;;0.20;0.20;;;;;;;-2.14;100.00;90197.16;2542661;23;20309;-81
2023/01/18 04:56:24;;;;;;;0.30;0.30;;;;;;;-2.13;100.00;90201.22;2542933;23;20005;-81
2023/01/18 04:57:25;;;;;;;0.30;0.30;;;;;;;-2.36;100.00;90207.34;2531045;23;20385;-81
2023/01/18 04:58:26;;;;;;;0.20;0.20;;;;;;;-2.42;100.00;90205.59;2531097;23;20339;-81
2023/01/18 04:59:27;;;;;;;0.28;0.28;;;;;;;-2.35;100.00;90214.03;2518582;23;20006;-81
2023/01/18 05:00:28;;;;;;;0.20;0.20;;;;;;;-2.43;100.00;90214.59;2518566;23;20006;-81
2023/01/18 05:01:29;;;;;;;0.30;0.30;;;;;;;-2.50;100.00;90209.50;2531044;23;20009;-81
2023/01/18 05:02:30;;;;;;;0.20;0.20;;;;;;;-2.55;100.00;90210.72;2542574;23;20115;-81
2023/01/18 05:03:36;;;;;;;0.30;0.30;;;;;;;-2.40;100.00;90217.13;2530616;23;20025;-81
2023/01/18 05:04:37;;;;;;;0.30;0.30;;;;;;;-2.57;100.00;90211.13;2544369;23;20013;-81
2023/01/18 05:05:39;;;;;;;0.20;0.20;;;;;;;-2.54;100.00;90226.00;2543456;23;20386;-81
2023/01/18 05:06:40;;;;;;;0.30;0.30;;;;;;;-2.44;100.00;90219.09;2519579;23;20017;-81
2023/01/18 05:07:41;;;;;;;0.20;0.20;;;;;;;-2.57;100.00;90218.25;2530951;23;20457;-81
2023/01/18 05:08:42;;;;;;;0.20;0.20;;;;;;;-2.44;100.00;90218.34;2530485;23;20002;-81
2023/01/18 05:09:43;;;;;;;0.30;0.30;;;;;;;-2.44;100.00;90226.94;2530249;23;20010;-81
2023/01/18 05:10:44;;;;;;;0.30;0.30;;;;;;;-2.44;100.00;90229.53;2519056;23;20013;-82
2023/01/18 05:11:45;;;;;;;0.35;0.35;;;;;;;-2.53;100.00;90229.38;2518755;23;20383;-81
2023/01/18 05:12:46;;;;;;;0.20;0.20;;;;;;;-2.45;100.00;90233.31;2519129;23;20097;-81
2023/01/18 05:13:47;;;;;;;0.22;0.22;;;;;;;-2.61;100.00;90239.22;2531268;23;20329;-81
2023/01/18 05:14:48;;;;;;;0.30;0.30;;;;;;;-2.50;100.00;90231.19;2530454;23;20013;-81
2023/01/18 05:15:49;;;;;;;0.30;0.30;;;;;;;-2.61;100.00;90243.72;2530625;23;20010;-80
2023/01/18 05:16:50;;;;;;;0.30;0.30;;;;;;;-2.66;100.00;90244.94;2519242;23;20002;-81
2023/01/18 05:17:51;;;;;;;0.30;0.30;;;;;;;-2.75;100.00;90249.97;2531218;23;20001;-80
2023/01/18 05:18:52;;;;;;;0.28;0.28;;;;;;;-2.78;100.00;90242.91;2531253;23;20024;-81
2023/01/18 05:19:53;;;;;;;0.30;0.30;;;;;;;-2.65;100.00;90250.88;2542567;23;20527;-82
2023/01/18 05:20:54;;;;;;;0.40;0.40;;;;;;;-2.71;100.00;90255.88;2535854;23;20303;-82
2023/01/18 05:21:55;;;;;;;0.50;0.30;;;;;;;-2.72;100.00;90254.41;2524360;23;20016;-81
2023/01/18 05:22:56;;;;;;;0.40;0.40;;;;;;;-2.79;100.00;90259.75;2512108;23;20131;-81
2023/01/18 05:23:57;;;;;;;0.40;0.40;;;;;;;-2.86;100.00;90254.66;2514403;23;20011;-82
2023/01/18 05:24:59;;;;;;;0.30;0.30;;;;;;;-2.86;100.00;90260.59;2518061;23;20027;-82
2023/01/18 05:26:00;;;;;;;0.40;0.40;;;;;;;-2.87;100.00;90266.25;2528526;23;20009;-80
2023/01/18 05:27:01;;;;;;;0.40;0.40;;;;;;;-2.91;100.00;90261.06;2540869;23;20012;-81
2023/01/18 05:28:02;;;;;;;0.50;0.35;;;;;;;-2.90;100.00;90262.53;2530791;23;20005;-81
2023/01/18 05:29:03;;;;;;;0.30;0.30;;;;;;;-2.91;100.00;90261.06;2542314;23;20021;-81
2023/01/18 05:30:05;;;;;;;0.50;0.50;;;;;;;-2.86;100.00;90265.84;2518745;23;20002;-81
2023/01/18 05:31:06;;;;;;;0.40;0.40;;;;;;;-2.88;100.00;90262.91;2518998;23;20002;-81
2023/01/18 05:32:07;;;;;;;0.57;0.40;;;;;;;-2.88;100.00;90264.78;2531132;23;20426;-81